Search METAR Data

METAR Data for ENZV:

ENZV 241620Z 31017KT CAVOK 07/M01 Q1007 NOSIG